Time;durP1;ratioP1;P1;durP2;ratioP2;P2;SDS_P1;SDS_P2;PMS_P1;PMS_P2;Temp;Humidity;BMP_temperature;BMP_pressure;BME280_temperature;BME280_humidity;BME280_pressure;Samples;Min_cycle;Max_cycle;Signal;HPM_P1;HPM_P2
2023/09/23 08:07:19;;;;;;;2.22;0.80;;;18.00;99.90;;;;;;3657728;23;20236;-73
2023/09/23 08:09:46;;;;;;;5.68;1.95;;;18.20;99.90;;;;;;4952565;28;20300;-72
2023/09/23 08:12:13;;;;;;;2.35;0.70;;;18.30;99.90;;;;;;4959056;28;20211;-74
2023/09/23 08:14:40;;;;;;;6.22;1.23;;;18.30;99.90;;;;;;4966105;28;20274;-73
2023/09/23 08:17:07;;;;;;;2.83;0.90;;;18.30;99.90;;;;;;4939864;29;20232;-72
2023/09/23 08:19:34;;;;;;;2.08;1.35;;;18.40;99.90;;;;;;4937106;29;20212;-72
2023/09/23 08:22:00;;;;;;;1.95;0.65;;;18.60;99.90;;;;;;4936916;29;20251;-72
2023/09/23 08:24:29;;;;;;;1.65;0.73;;;18.70;99.90;;;;;;4942317;29;20222;-72
2023/09/23 08:26:56;;;;;;;1.52;0.60;;;18.70;99.90;;;;;;4941816;29;20292;-72
2023/09/23 08:29:23;;;;;;;3.20;0.93;;;19.00;99.90;;;;;;4936649;29;20311;-72
2023/09/23 08:31:50;;;;;;;3.15;0.80;;;19.10;99.90;;;;;;4936420;29;20269;-72
2023/09/23 08:34:17;;;;;;;3.17;0.95;;;18.90;99.90;;;;;;4935851;29;20692;-73
2023/09/23 08:36:44;;;;;;;3.38;1.05;;;18.40;99.90;;;;;;4936005;29;20718;-72
2023/09/23 08:39:11;;;;;;;1.35;0.80;;;18.40;99.90;;;;;;4937031;29;20303;-72
2023/09/23 08:41:40;;;;;;;1.50;0.85;;;18.30;99.90;;;;;;4936656;29;20252;-72
2023/09/23 08:44:08;;;;;;;1.05;0.63;;;18.50;99.90;;;;;;4936774;29;20319;-73
2023/09/23 08:46:35;;;;;;;1.73;0.75;;;18.40;99.90;;;;;;4936495;29;20310;-77
2023/09/23 08:49:03;;;;;;;3.33;0.75;;;18.50;99.90;;;;;;4936751;29;20671;-75
2023/09/23 08:51:31;;;;;;;2.95;0.88;;;18.50;99.90;;;;;;4936181;29;20212;-73
2023/09/23 08:53:58;;;;;;;0.95;0.60;;;18.40;99.90;;;;;;4936038;29;20324;-71
2023/09/23 08:56:34;;;;;;;4.28;0.90;;;18.40;99.90;;;;;;5151979;27;20939;-71
2023/09/23 08:59:01;;;;;;;2.10;0.70;;;18.00;99.90;;;;;;5151631;27;20243;-71
2023/09/23 09:01:28;;;;;;;3.00;0.73;;;18.00;99.90;;;;;;5151798;27;20239;-73
2023/09/23 09:03:55;;;;;;;2.65;0.90;;;18.20;99.90;;;;;;5151721;27;20650;-72
2023/09/23 09:06:29;;;;;;;3.95;1.00;;;18.30;99.90;;;;;;5152011;27;20622;-73
2023/09/23 09:08:56;;;;;;;2.65;0.60;;;18.30;99.90;;;;;;5151765;27;20290;-73
2023/09/23 09:11:24;;;;;;;2.75;0.80;;;18.20;99.90;;;;;;5151743;27;20204;-73
2023/09/23 09:13:52;;;;;;;1.63;0.60;;;18.10;99.90;;;;;;5151751;27;20251;-73
2023/09/23 09:16:20;;;;;;;3.33;1.02;;;18.00;99.90;;;;;;5151325;27;20268;-73
2023/09/23 09:18:51;;;;;;;2.67;1.00;;;18.10;99.90;;;;;;5151333;27;20197;-73
2023/09/23 09:21:18;;;;;;;2.13;0.70;;;18.40;99.90;;;;;;5151753;27;20251;-73
2023/09/23 09:23:45;;;;;;;2.00;0.60;;;18.30;99.90;;;;;;5151349;27;20204;-74
2023/09/23 09:26:12;;;;;;;1.13;0.50;;;18.20;99.90;;;;;;5151921;27;20243;-73
2023/09/23 09:28:39;;;;;;;1.63;0.70;;;18.30;99.90;;;;;;5151593;27;20232;-73
2023/09/23 09:31:10;;;;;;;3.60;0.80;;;18.10;99.90;;;;;;5151377;27;20286;-73
2023/09/23 09:33:39;;;;;;;3.10;0.85;;;18.10;99.90;;;;;;5151134;27;20246;-73
2023/09/23 09:36:08;;;;;;;0.85;0.63;;;18.20;99.90;;;;;;5146232;27;20689;-73
2023/09/23 09:38:38;;;;;;;1.75;0.70;;;18.10;99.90;;;;;;5139986;27;20683;-73
2023/09/23 09:41:09;;;;;;;2.00;0.60;;;18.10;99.90;;;;;;5138790;27;20197;-73
2023/09/23 09:43:36;;;;;;;0.40;0.40;;;18.20;99.90;;;;;;5139615;27;20195;-73
2023/09/23 09:46:08;;;;;;;0.85;0.43;;;18.00;99.90;;;;;;5140830;27;20223;-73
2023/09/23 09:48:39;;;;;;;2.55;0.68;;;18.10;99.90;;;;;;5140333;27;20193;-73
2023/09/23 09:51:07;;;;;;;0.98;0.50;;;18.10;99.90;;;;;;5138434;27;20193;-73
2023/09/23 09:53:36;;;;;;;1.60;0.60;;;18.00;99.90;;;;;;5149715;27;20208;-73
